createdAt,value
2022-11-23T00:05:29.910Z,82.59
2022-11-23T00:08:18.004Z,82.19
2022-11-23T00:11:06.032Z,81.61
2022-11-23T00:29:38.003Z,81.41
2022-11-23T00:35:08.547Z,81.84
2022-11-23T00:40:39.067Z,81.36
2022-11-23T00:43:26.943Z,81.82
2022-11-23T00:46:18.437Z,81.21
2022-11-23T00:51:55.612Z,80.80
2022-11-23T00:54:43.684Z,80.93
2022-11-23T00:57:32.856Z,81.90
2022-11-23T01:03:07.906Z,80.82
2022-11-23T01:05:56.171Z,80.33
2022-11-23T01:08:47.506Z,79.84
2022-11-23T01:14:18.147Z,80.50
2022-11-23T01:19:49.655Z,81.48
2022-11-23T01:25:26.080Z,82.30
2022-11-23T01:31:07.346Z,84.06
2022-11-23T01:36:57.886Z,84.45
2022-11-23T01:39:46.294Z,84.86
2022-11-23T01:45:40.094Z,85.13
2022-11-23T01:51:13.097Z,85.76
2022-11-23T01:56:46.994Z,86.05
2022-11-23T01:59:36.212Z,86.32
2022-11-23T02:02:24.400Z,86.90
2022-11-23T02:07:53.580Z,86.95
2022-11-23T02:10:42.068Z,86.81
2022-11-23T02:13:31.048Z,87.54
2022-11-23T02:16:20.829Z,87.81
2022-11-23T02:21:57.105Z,88.03
2022-11-23T02:27:33.394Z,87.31
2022-11-23T02:33:09.492Z,88.09
2022-11-23T02:38:46.783Z,88.45
2022-11-23T02:44:33.179Z,87.73
2022-11-23T02:47:22.436Z,87.94
2022-11-23T02:50:12.082Z,88.06
2022-11-23T02:55:42.440Z,87.93
2022-11-23T03:01:17.041Z,87.47
2022-11-23T03:06:54.999Z,88.46
2022-11-23T03:09:45.401Z,88.29
2022-11-23T03:18:20.429Z,87.47
2022-11-23T03:21:09.324Z,87.77
2022-11-23T03:26:39.276Z,86.32
2022-11-23T03:32:16.249Z,87.39
2022-11-23T03:37:52.027Z,88.81
2022-11-23T03:43:25.233Z,88.40
2022-11-23T03:48:55.366Z,88.52
2022-11-23T03:54:24.835Z,88.82
2022-11-23T03:59:59.119Z,90.29
2022-11-23T04:05:37.792Z,89.33
2022-11-23T04:08:26.118Z,89.96
2022-11-23T04:14:02.447Z,89.07
2022-11-23T04:19:36.992Z,88.87
2022-11-23T04:22:27.151Z,89.31
2022-11-23T04:25:15.531Z,89.88
2022-11-23T04:30:48.440Z,89.93
2022-11-23T04:36:18.082Z,90.51
2022-11-23T04:39:07.116Z,90.76
2022-11-23T04:41:55.500Z,90.86
2022-11-23T04:47:33.993Z,91.30
2022-11-23T04:50:23.886Z,91.49
2022-11-23T04:53:12.018Z,91.50
2022-11-23T04:56:03.946Z,92.14
2022-11-23T05:01:38.970Z,93.19
2022-11-23T05:07:13.382Z,93.98
2022-11-23T05:15:33.660Z,95.41
2022-11-23T05:21:06.891Z,96.14
2022-11-23T05:26:38.617Z,98.05
2022-11-23T05:29:29.385Z,98.19
2022-11-23T05:32:29.822Z,98.16
2022-11-23T05:35:18.277Z,97.92
2022-11-23T05:40:47.567Z,98.10
2022-11-23T05:43:38.223Z,98.36
2022-11-23T05:49:18.123Z,97.97
2022-11-23T05:57:40.723Z,98.99
2022-11-23T06:03:16.443Z,99.14
2022-11-23T06:11:32.442Z,98.25
2022-11-23T06:17:07.747Z,98.26
2022-11-23T06:22:35.796Z,97.81
2022-11-23T06:28:08.145Z,99.05
2022-11-23T06:33:34.073Z,99.26
2022-11-23T06:36:22.810Z,99.47
2022-11-23T06:39:11.335Z,99.42
2022-11-23T06:44:45.911Z,99.72
2022-11-23T06:50:16.939Z,100.00
2022-11-23T06:53:05.844Z,100.00
2022-11-23T06:55:57.323Z,100.00
2022-11-23T07:01:33.865Z,100.00
2022-11-23T07:04:22.315Z,100.00
2022-11-23T07:12:43.668Z,100.00
2022-11-23T07:18:21.685Z,100.00
2022-11-23T07:23:52.506Z,100.00
2022-11-23T07:32:45.462Z,100.00
2022-11-23T07:39:36.386Z,100.00
2022-11-23T07:45:59.549Z,100.00
2022-11-23T07:52:35.806Z,98.24
2022-11-23T07:59:12.116Z,97.39
2022-11-23T08:05:49.602Z,96.87
2022-11-23T08:11:48.300Z,95.66
2022-11-23T08:17:18.725Z,93.34
2022-11-23T08:20:08.728Z,92.98
2022-11-23T08:22:58.482Z,92.26
2022-11-23T08:28:28.203Z,91.57
2022-11-23T08:34:19.408Z,88.05
2022-11-23T08:39:58.480Z,88.25
2022-11-23T08:42:47.907Z,87.58
2022-11-23T08:45:36.234Z,88.01
2022-11-23T08:56:59.018Z,86.88
2022-11-23T09:00:00.850Z,85.90
2022-11-23T09:05:35.141Z,82.48
2022-11-23T09:13:52.038Z,79.59
2022-11-23T09:16:40.479Z,80.15
2022-11-23T09:19:29.371Z,80.76
2022-11-23T09:24:59.671Z,81.06
2022-11-23T09:27:48.306Z,81.61
2022-11-23T09:33:18.549Z,79.04
2022-11-23T09:38:57.222Z,76.75
2022-11-23T09:50:38.820Z,74.79
2022-11-23T09:56:16.786Z,74.08
2022-11-23T09:59:11.148Z,73.41
2022-11-23T10:04:49.428Z,72.23
2022-11-23T10:07:45.500Z,72.05
2022-11-23T10:13:35.362Z,70.79
2022-11-23T10:19:18.286Z,69.02
2022-11-23T10:24:55.941Z,65.75
2022-11-23T10:27:45.527Z,65.10
2022-11-23T10:33:25.206Z,64.15
2022-11-23T10:41:42.085Z,66.65
2022-11-23T10:47:37.886Z,67.05
2022-11-23T10:50:29.816Z,67.41
2022-11-23T10:56:13.389Z,65.68
2022-11-23T11:01:41.258Z,61.92
2022-11-23T11:04:29.943Z,61.17
2022-11-23T11:10:16.791Z,59.86
2022-11-23T11:13:07.335Z,60.54
2022-11-23T11:18:44.238Z,60.38
2022-11-23T11:21:38.756Z,60.64
2022-11-23T11:30:06.722Z,58.67
2022-11-23T11:38:32.475Z,61.20
2022-11-23T11:46:55.507Z,62.21
2022-11-23T11:52:36.614Z,62.58
2022-11-23T11:58:18.731Z,61.44
2022-11-23T12:01:09.999Z,63.47
2022-11-23T12:12:26.582Z,62.62
2022-11-23T12:18:39.016Z,61.25
2022-11-23T12:24:28.508Z,60.81
2022-11-23T12:30:22.979Z,60.46
2022-11-23T12:33:27.107Z,59.88
2022-11-23T12:36:31.360Z,59.34
2022-11-23T12:42:18.311Z,58.59
2022-11-23T12:50:46.891Z,59.61
2022-11-23T12:56:25.125Z,60.16
2022-11-23T13:02:05.118Z,61.00
2022-11-23T13:08:15.446Z,60.32
2022-11-23T13:14:04.885Z,60.21
2022-11-23T13:17:03.018Z,60.61
2022-11-23T13:22:54.954Z,58.29
2022-11-23T13:28:32.761Z,54.24
2022-11-23T13:31:24.656Z,52.64
2022-11-23T13:34:45.333Z,51.75
2022-11-23T13:43:07.709Z,52.05
2022-11-23T13:52:06.545Z,55.27
2022-11-23T13:55:20.555Z,55.66
2022-11-23T14:02:04.384Z,56.14
2022-11-23T14:07:36.056Z,56.85
2022-11-23T14:10:25.543Z,56.87
2022-11-23T14:16:50.859Z,57.32
2022-11-23T14:20:11.908Z,58.31
2022-11-23T14:23:23.929Z,58.70
2022-11-23T14:29:07.574Z,58.96
2022-11-23T14:35:17.773Z,59.06
2022-11-23T14:41:03.533Z,60.37
2022-11-23T14:46:35.934Z,61.80
2022-11-23T14:52:23.616Z,61.56
2022-11-23T15:00:43.369Z,63.71
2022-11-23T15:06:20.601Z,63.28
2022-11-23T15:12:10.810Z,65.54
2022-11-23T15:18:15.016Z,65.56
2022-11-23T15:21:05.920Z,65.61
2022-11-23T15:23:57.670Z,65.28
2022-11-23T15:29:38.050Z,65.78
2022-11-23T15:35:17.958Z,66.02
2022-11-23T15:41:03.257Z,65.03
2022-11-23T15:46:38.991Z,65.23
2022-11-23T15:52:18.723Z,65.60
2022-11-23T15:57:55.148Z,66.29
2022-11-23T16:03:37.023Z,65.32
2022-11-23T16:12:31.890Z,64.93
2022-11-23T16:21:21.102Z,68.84
2022-11-23T16:27:15.433Z,73.72
2022-11-23T16:32:48.835Z,75.82
2022-11-23T16:38:32.541Z,78.14
2022-11-23T16:44:18.066Z,82.32
2022-11-23T16:50:01.267Z,83.71
2022-11-23T16:55:30.893Z,85.55
2022-11-23T16:58:19.461Z,84.86
2022-11-23T17:03:47.389Z,86.45
2022-11-23T17:09:25.117Z,86.67
2022-11-23T17:15:15.537Z,85.62
2022-11-23T17:20:52.432Z,86.60
2022-11-23T17:26:34.833Z,88.40
2022-11-23T17:32:10.009Z,88.26
2022-11-23T17:37:58.791Z,89.92
2022-11-23T17:43:30.939Z,91.43
2022-11-23T17:46:21.168Z,91.41
2022-11-23T17:51:59.366Z,92.34
2022-11-23T18:00:37.564Z,94.25
2022-11-23T18:03:25.840Z,94.86
2022-11-23T18:06:15.933Z,94.40
2022-11-23T18:11:46.107Z,95.64
2022-11-23T18:14:34.514Z,95.79
2022-11-23T18:17:24.055Z,96.08
2022-11-23T18:22:59.587Z,98.50
2022-11-23T18:28:30.812Z,100.00
2022-11-23T18:31:23.473Z,100.00
2022-11-23T18:37:02.591Z,100.00
2022-11-23T18:45:24.722Z,100.00
2022-11-23T18:53:55.473Z,100.00
2022-11-23T18:59:57.472Z,100.00
2022-11-23T19:02:32.615Z,100.00
2022-11-23T19:05:21.405Z,100.00
2022-11-23T19:08:10.539Z,100.00
2022-11-23T19:11:08.204Z,100.00
2022-11-23T19:16:53.803Z,100.00
2022-11-23T19:22:28.187Z,100.00
2022-11-23T19:27:58.596Z,100.00
2022-11-23T19:33:37.600Z,100.00
2022-11-23T19:39:20.236Z,99.83
2022-11-23T19:45:08.265Z,98.17
2022-11-23T19:53:49.101Z,96.12
2022-11-23T20:02:36.364Z,96.92
2022-11-23T20:12:04.514Z,96.31
2022-11-23T20:17:35.613Z,96.59
2022-11-23T20:20:33.081Z,97.52
2022-11-23T20:23:41.007Z,97.13
2022-11-23T20:26:29.464Z,97.35
2022-11-23T20:32:10.456Z,96.60
2022-11-23T20:38:14.269Z,95.79
2022-11-23T20:41:26.670Z,96.45
2022-11-23T21:00:38.897Z,100.00
2022-11-23T21:09:13.305Z,100.00
2022-11-23T21:18:10.890Z,100.00
2022-11-23T21:24:50.340Z,100.00
2022-11-23T21:34:26.682Z,100.00
2022-11-23T21:42:47.757Z,100.00
2022-11-23T21:45:38.519Z,100.00
2022-11-23T21:48:27.146Z,100.00
2022-11-23T21:54:06.350Z,100.00
2022-11-23T21:59:39.767Z,100.00
2022-11-23T22:02:30.491Z,100.00
2022-11-23T22:05:18.813Z,100.00
2022-11-23T22:13:36.895Z,100.00
2022-11-23T22:24:36.141Z,100.00
2022-11-23T22:27:24.418Z,100.00
2022-11-23T22:32:57.943Z,100.00
2022-11-23T22:35:49.237Z,100.00
2022-11-23T22:41:21.274Z,100.00
2022-11-23T22:47:02.962Z,100.00
2022-11-23T22:55:21.424Z,100.00
2022-11-23T23:03:59.398Z,100.00
2022-11-23T23:06:50.971Z,100.00
2022-11-23T23:09:39.337Z,100.00
2022-11-23T23:15:14.737Z,100.00
2022-11-23T23:20:53.767Z,100.00
2022-11-23T23:23:45.123Z,100.00
2022-11-23T23:29:17.185Z,100.00
2022-11-23T23:34:49.614Z,100.00
2022-11-23T23:40:26.075Z,100.00
2022-11-23T23:43:14.315Z,100.00
2022-11-23T23:48:45.274Z,100.00
2022-11-23T23:51:35.036Z,100.00
2022-11-23T23:54:23.581Z,100.00
2022-11-23T23:59:53.636Z,100.00
